Time;durP1;ratioP1;P1;durP2;ratioP2;P2;SDS_P1;SDS_P2;PMS_P1;PMS_P2;Temp;Humidity;BMP_temperature;BMP_pressure;BME280_temperature;BME280_humidity;BME280_pressure;Samples;Min_cycle;Max_cycle;Signal;HPM_P1;HPM_P2
2021/12/15 00:00:28;;;;;;;97.22;35.83;;;10.10;99.90;;;;;;4924497;29;20521;-92
2021/12/15 00:03:19;;;;;;;90.53;32.60;;;9.90;99.90;;;;;;4927673;29;20062;-93
2021/12/15 00:06:12;;;;;;;83.32;34.40;;;10.80;99.90;;;;;;4928111;29;20142;-93
2021/12/15 00:08:44;;;;;;;92.40;31.73;;;10.20;99.90;;;;;;4929680;29;20075;-94
2021/12/15 00:11:33;;;;;;;81.55;31.67;;;10.00;99.90;;;;;;4930523;29;20394;-93
2021/12/15 00:14:17;;;;;;;83.45;32.03;;;9.90;99.90;;;;;;4926257;29;20043;-93
2021/12/15 00:16:49;;;;;;;83.75;34.30;;;10.40;99.90;;;;;;4926328;29;20078;-93
2021/12/15 00:19:17;;;;;;;74.43;29.95;;;9.80;99.90;;;;;;4928166;29;20078;-93
2021/12/15 00:21:46;;;;;;;75.38;31.63;;;10.70;99.90;;;;;;4924458;29;20052;-92
2021/12/15 00:24:18;;;;;;;79.18;33.13;;;9.60;99.90;;;;;;4939768;29;20051;-92
2021/12/15 00:26:46;;;;;;;80.53;32.95;;;9.90;99.90;;;;;;4923539;29;20142;-92
2021/12/15 00:29:15;;;;;;;82.28;32.25;;;10.50;99.90;;;;;;4921648;29;20051;-93
2021/12/15 00:31:45;;;;;;;69.32;29.60;;;10.00;99.90;;;;;;4922908;29;20048;-92
2021/12/15 00:34:12;;;;;;;77.88;33.28;;;9.90;99.90;;;;;;4930189;28;20095;-94
2021/12/15 00:36:49;;;;;;;;;;;;;;;;;;;;;
2021/12/15 00:39:21;;;;;;;82.88;30.88;;;9.70;99.90;;;;;;4940835;29;20522;-92
2021/12/15 00:41:48;;;;;;;76.47;31.95;;;9.40;99.90;;;;;;4927231;29;20048;-92
2021/12/15 00:44:17;;;;;;;66.25;29.98;;;10.60;99.90;;;;;;4927663;29;20121;-92
2021/12/15 00:46:52;;;;;;;73.32;30.75;;;10.30;99.90;;;;;;4923447;29;20074;-92
2021/12/15 00:49:23;;;;;;;74.85;31.48;;;10.10;99.90;;;;;;4922684;29;20571;-93
2021/12/15 00:51:54;;;;;;;85.82;34.22;;;9.90;99.90;;;;;;4936542;29;20068;-93
2021/12/15 00:54:23;;;;;;;87.85;33.10;;;10.60;99.90;;;;;;4923690;29;20043;-92
2021/12/15 00:57:04;;;;;;;73.15;33.55;;;10.90;99.90;;;;;;4922708;29;20048;-93
2021/12/15 00:59:48;;;;;;;81.30;30.85;;;9.70;99.90;;;;;;4923432;29;20063;-93
2021/12/15 01:02:24;;;;;;;89.70;33.78;;;9.90;99.90;;;;;;4934849;29;20059;-93
2021/12/15 01:04:50;;;;;;;71.68;30.35;;;9.90;99.90;;;;;;4922987;29;20075;-93
2021/12/15 01:07:16;;;;;;;;;;;9.30;99.90;;;;;;4922127;29;20098;-93
2021/12/15 01:09:49;;;;;;;86.28;31.75;;;11.00;99.90;;;;;;4923540;29;19918;-93
2021/12/15 01:12:36;;;;;;;70.38;30.27;;;9.90;99.90;;;;;;4922737;29;20055;-92
2021/12/15 01:20:30;;;;;;;92.53;34.40;;;9.90;99.90;;;;;;4935936;29;20058;-92
2021/12/15 01:23:11;;;;;;;77.28;32.88;;;10.00;99.90;;;;;;4937356;29;20530;-92
2021/12/15 01:25:54;;;;;;;74.15;32.15;;;11.00;99.90;;;;;;4922035;29;20054;-92
2021/12/15 01:28:26;;;;;;;66.57;28.35;;;10.80;99.90;;;;;;4922495;29;20055;-92
2021/12/15 01:30:54;;;;;;;84.45;34.45;;;10.10;99.90;;;;;;4924908;29;20052;-92
2021/12/15 01:33:27;;;;;;;73.55;30.92;;;10.70;99.90;;;;;;4940218;29;20161;-94
2021/12/15 01:35:55;;;;;;;72.95;31.23;;;10.00;99.90;;;;;;4941564;29;20044;-92
2021/12/15 01:38:24;;;;;;;87.15;33.05;;;9.90;99.90;;;;;;4926097;29;20051;-92
2021/12/15 01:40:54;;;;;;;75.15;32.70;;;10.80;99.90;;;;;;4943234;29;20131;-92
2021/12/15 01:43:29;;;;;;;71.55;29.05;;;10.30;99.90;;;;;;4928967;29;20163;-92
2021/12/15 01:49:05;;;;;;;78.40;33.50;;;10.70;99.90;;;;;;4942543;29;20052;-92
2021/12/15 01:51:35;;;;;;;94.32;34.58;;;10.00;99.90;;;;;;4927070;29;20055;-93
2021/12/15 01:54:01;;;;;;;;;;;10.00;99.90;;;;;;4943161;29;20075;-92
2021/12/15 01:56:29;;;;;;;66.50;29.70;;;9.90;99.90;;;;;;4925993;29;20278;-92
2021/12/15 01:58:58;;;;;;;78.00;31.25;;;10.20;99.90;;;;;;4924877;29;20074;-93
2021/12/15 02:01:25;;;;;;;90.45;35.35;;;10.70;99.90;;;;;;4941817;29;20051;-92
2021/12/15 02:03:54;;;;;;;87.30;32.28;;;10.00;99.90;;;;;;4924605;29;20087;-92
2021/12/15 02:06:20;;;;;;;76.93;30.80;;;9.90;99.90;;;;;;4923453;29;20043;-92
2021/12/15 02:08:57;;;;;;;77.78;33.92;;;10.50;99.90;;;;;;4924559;29;20054;-92
2021/12/15 02:11:25;;;;;;;81.65;33.33;;;10.30;99.90;;;;;;4925148;29;20051;-92
2021/12/15 02:14:14;;;;;;;;;;;;;;;;;;;;;
2021/12/15 02:16:44;;;;;;;68.68;29.75;;;9.90;99.90;;;;;;4940041;29;20039;-93
2021/12/15 02:19:26;;;;;;;73.25;32.70;;;10.00;99.90;;;;;;4925622;29;20056;-92
2021/12/15 02:22:07;;;;;;;74.13;30.30;;;10.40;99.90;;;;;;4926069;29;20089;-93
2021/12/15 02:24:38;;;;;;;74.65;34.10;;;10.00;99.90;;;;;;4942707;29;20412;-92
2021/12/15 02:27:30;;;;;;;82.00;33.05;;;9.20;99.90;;;;;;4942512;29;20406;-93
2021/12/15 02:30:05;;;;;;;78.97;33.10;;;10.00;99.90;;;;;;4927565;29;20063;-92
2021/12/15 02:33:00;;;;;;;88.55;33.20;;;9.00;99.90;;;;;;4925470;29;20146;-93
2021/12/15 02:38:14;;;;;;;82.85;33.67;;;9.00;99.90;;;;;;4944966;29;20409;-93
2021/12/15 02:40:40;;;;;;;78.88;32.45;;;9.10;99.90;;;;;;4944991;29;20039;-92
2021/12/15 02:43:06;;;;;;;;;;;10.10;99.90;;;;;;4929284;29;20056;-92
2021/12/15 02:45:33;;;;;;;76.88;31.08;;;9.50;99.90;;;;;;4928710;29;20749;-92
2021/12/15 02:47:59;;;;;;;79.90;33.00;;;10.50;99.90;;;;;;4927239;29;20050;-91
2021/12/15 02:50:30;;;;;;;76.55;33.95;;;10.30;99.90;;;;;;4942445;29;20055;-93
2021/12/15 02:53:03;;;;;;;82.22;34.35;;;10.00;99.90;;;;;;4924685;29;20071;-92
2021/12/15 02:55:37;;;;;;;77.10;34.05;;;10.00;99.90;;;;;;4924912;29;20047;-93
2021/12/15 02:58:06;;;;;;;82.97;31.95;;;10.60;99.90;;;;;;4925222;29;20138;-92
2021/12/15 03:00:48;;;;;;;79.85;32.92;;;9.90;99.90;;;;;;4924634;29;20048;-91
2021/12/15 03:06:22;;;;;;;77.90;33.53;;;10.30;99.90;;;;;;4919769;29;20066;-92
2021/12/15 03:08:56;;;;;;;81.60;34.65;;;11.00;99.90;;;;;;4924115;29;20050;-92
2021/12/15 03:16:58;;;;;;;73.70;34.20;;;10.80;99.90;;;;;;4940023;29;20479;-92
2021/12/15 03:19:27;;;;;;;75.57;34.40;;;10.00;99.90;;;;;;4925066;29;20118;-93
2021/12/15 03:21:53;;;;;;;73.55;32.13;;;10.60;99.90;;;;;;4923742;29;20451;-93
2021/12/15 03:24:22;;;;;;;;;;;9.80;99.90;;;;;;4924876;29;20490;-92
2021/12/15 03:27:00;;;;;;;76.10;31.98;;;10.00;99.90;;;;;;4925026;29;20377;-92
2021/12/15 03:35:16;;;;;;;73.50;33.30;;;9.60;99.90;;;;;;4941846;29;20111;-92
2021/12/15 03:37:56;;;;;;;70.90;31.73;;;9.70;99.90;;;;;;4941379;29;20111;-92
2021/12/15 03:40:27;;;;;;;79.25;33.30;;;10.70;99.90;;;;;;4925155;29;20087;-92
2021/12/15 03:43:00;;;;;;;77.38;34.30;;;10.00;99.90;;;;;;4941107;29;20044;-92
2021/12/15 03:45:36;;;;;;;76.75;31.30;;;10.00;99.90;;;;;;4925747;29;20058;-92
2021/12/15 03:48:05;;;;;;;93.40;36.72;;;9.90;99.90;;;;;;4925415;29;20048;-93
2021/12/15 03:50:32;;;;;;;80.57;34.63;;;10.10;99.90;;;;;;4940836;29;20107;-93
2021/12/15 03:53:03;;;;;;;79.35;33.63;;;10.00;99.90;;;;;;4925051;29;20074;-93
2021/12/15 03:55:35;;;;;;;79.97;34.00;;;9.90;99.90;;;;;;4926049;29;20048;-93
2021/12/15 03:58:11;;;;;;;86.75;35.40;;;9.90;99.90;;;;;;4923409;29;20062;-93
2021/12/15 04:00:41;;;;;;;82.32;34.65;;;11.00;99.90;;;;;;4924265;29;20059;-93
2021/12/15 04:03:45;;;;;;;80.50;33.67;;;10.00;99.90;;;;;;4926625;29;20051;-93
2021/12/15 04:06:18;;;;;;;80.25;32.83;;;9.90;99.90;;;;;;4895200;29;20059;-93
2021/12/15 04:11:51;;;;;;;92.97;35.78;;;10.40;99.90;;;;;;4941542;29;20063;-93
2021/12/15 04:14:22;;;;;;;80.55;33.00;;;10.30;99.90;;;;;;4927062;29;20138;-94
2021/12/15 04:17:07;;;;;;;95.90;36.15;;;9.20;99.90;;;;;;4925354;29;20051;-92
2021/12/15 04:19:39;;;;;;;86.60;37.10;;;10.40;99.90;;;;;;4923954;29;20400;-93
2021/12/15 04:22:13;;;;;;;78.03;33.95;;;10.90;99.90;;;;;;4939354;29;20056;-93
2021/12/15 04:24:42;;;;;;;86.72;35.53;;;10.90;99.90;;;;;;4921186;29;20111;-93
2021/12/15 04:27:14;;;;;;;86.43;36.72;;;9.70;99.90;;;;;;4924132;29;20052;-92
2021/12/15 04:29:44;;;;;;;88.47;35.00;;;9.90;99.90;;;;;;4924027;29;20215;-93
2021/12/15 04:32:15;;;;;;;83.40;34.75;;;9.70;99.90;;;;;;4933966;28;20078;-93
2021/12/15 04:34:47;;;;;;;77.78;34.88;;;10.60;99.90;;;;;;4929969;28;20059;-93
2021/12/15 04:37:13;;;;;;;79.10;34.55;;;9.50;99.90;;;;;;4923286;29;20091;-93
2021/12/15 04:39:53;;;;;;;86.30;37.67;;;10.00;99.90;;;;;;4924247;29;20055;-93
2021/12/15 04:42:37;;;;;;;76.57;33.53;;;9.70;99.90;;;;;;4939675;29;20044;-93
2021/12/15 04:45:22;;;;;;;80.55;35.03;;;9.90;99.90;;;;;;4922264;29;20048;-92
2021/12/15 04:47:52;;;;;;;83.85;36.30;;;9.90;99.90;;;;;;4923208;29;20115;-92
2021/12/15 04:50:26;;;;;;;89.30;37.63;;;10.40;99.90;;;;;;4925205;29;20043;-92
2021/12/15 04:53:03;;;;;;;90.97;36.45;;;10.00;99.90;;;;;;4923535;29;20081;-92
2021/12/15 04:55:40;;;;;;;96.50;40.05;;;10.60;99.90;;;;;;4922325;29;20047;-93
2021/12/15 04:58:10;;;;;;;86.43;35.58;;;10.30;99.90;;;;;;4921586;29;20135;-92
2021/12/15 05:00:43;;;;;;;97.35;39.10;;;11.10;99.90;;;;;;4938673;29;20139;-92
2021/12/15 05:03:12;;;;;;;92.20;37.85;;;10.30;99.90;;;;;;4923782;29;20048;-92
2021/12/15 05:05:41;;;;;;;74.72;32.00;;;10.50;99.90;;;;;;4943123;29;20422;-93
2021/12/15 05:08:10;;;;;;;78.88;33.78;;;9.80;99.90;;;;;;4928765;29;20051;-92
2021/12/15 05:10:39;;;;;;;81.20;35.33;;;10.90;99.90;;;;;;4928708;29;20083;-93
2021/12/15 05:13:05;;;;;;;84.40;37.67;;;11.10;99.90;;;;;;4928992;29;20083;-92
2021/12/15 05:15:36;;;;;;;65.80;32.45;;;10.10;99.90;;;;;;4927247;29;20058;-92
2021/12/15 05:18:11;;;;;;;85.90;38.33;;;10.70;99.90;;;;;;4926637;29;20055;-93
2021/12/15 05:20:50;;;;;;;93.68;36.95;;;9.50;99.90;;;;;;4927921;29;20044;-94
2021/12/15 05:23:27;;;;;;;79.45;34.78;;;10.20;99.90;;;;;;4927700;29;20083;-93
2021/12/15 05:26:03;;;;;;;76.10;32.70;;;10.00;99.90;;;;;;4927456;29;20040;-93
2021/12/15 05:28:33;;;;;;;90.40;35.58;;;9.90;99.90;;;;;;4943211;29;20055;-93
2021/12/15 05:30:59;;;;;;;84.13;37.55;;;9.90;99.90;;;;;;4925816;29;20117;-92
2021/12/15 05:33:25;;;;;;;82.78;36.60;;;9.90;99.90;;;;;;4926591;29;20130;-93
2021/12/15 05:35:55;;;;;;;78.70;34.20;;;10.90;99.90;;;;;;4925973;29;20156;-92
2021/12/15 05:38:21;;;;;;;87.53;41.10;;;10.60;99.90;;;;;;4943661;29;20043;-92
2021/12/15 05:40:50;;;;;;;88.20;38.20;;;10.60;99.90;;;;;;4927120;29;20047;-93
2021/12/15 05:43:16;;;;;;;85.05;37.13;;;9.60;99.90;;;;;;4924491;29;20047;-92
2021/12/15 05:45:42;;;;;;;;;;;10.10;99.90;;;;;;4924671;29;20055;-92
2021/12/15 05:48:10;;;;;;;85.82;33.45;;;10.80;99.90;;;;;;4925840;29;20028;-92
2021/12/15 05:50:37;;;;;;;86.25;35.38;;;9.70;99.90;;;;;;4924697;29;20138;-93
2021/12/15 05:53:05;;;;;;;90.28;37.40;;;9.90;99.90;;;;;;4924835;29;20064;-92
2021/12/15 05:55:33;;;;;;;90.13;38.15;;;10.80;99.90;;;;;;4924497;29;20554;-92
2021/12/15 05:57:59;;;;;;;90.00;38.65;;;9.30;99.90;;;;;;4924801;29;20055;-93
2021/12/15 06:00:28;;;;;;;82.43;37.30;;;9.90;99.90;;;;;;4924886;29;20138;-92
2021/12/15 06:02:56;;;;;;;93.47;38.70;;;9.90;99.90;;;;;;4943756;29;20091;-92
2021/12/15 06:05:25;;;;;;;87.65;36.92;;;10.30;99.90;;;;;;4930421;29;20067;-93
2021/12/15 06:07:54;;;;;;;94.85;38.40;;;11.00;99.90;;;;;;4930138;29;20076;-93
2021/12/15 06:10:26;;;;;;;84.75;36.03;;;10.50;99.90;;;;;;4945733;29;20044;-93
2021/12/15 06:13:02;;;;;;;81.28;36.42;;;10.60;99.90;;;;;;4929483;29;20051;-93
2021/12/15 06:15:37;;;;;;;76.10;36.90;;;10.20;99.90;;;;;;4929335;29;20055;-92
2021/12/15 06:18:12;;;;;;;91.05;38.83;;;10.00;99.90;;;;;;4944511;29;20051;-92
2021/12/15 06:20:40;;;;;;;79.88;36.78;;;10.90;99.90;;;;;;4929280;29;20048;-93
2021/12/15 06:23:11;;;;;;;83.10;36.65;;;9.80;99.90;;;;;;4944033;29;20062;-93
2021/12/15 06:25:41;;;;;;;83.28;37.67;;;10.60;99.90;;;;;;4927366;29;20889;-93
2021/12/15 06:28:08;;;;;;;86.38;39.00;;;10.00;99.90;;;;;;4932356;29;20047;-93
2021/12/15 06:30:35;;;;;;;91.55;38.17;;;9.70;99.90;;;;;;4929234;29;20495;-94
2021/12/15 06:33:01;;;;;;;87.03;37.78;;;10.00;99.90;;;;;;4928781;29;20083;-93
2021/12/15 06:35:27;;;;;;;80.75;36.42;;;10.90;99.90;;;;;;4930494;29;20047;-94
2021/12/15 06:37:53;;;;;;;81.78;34.70;;;9.90;99.90;;;;;;4930107;29;20075;-94
2021/12/15 06:40:19;;;;;;;81.15;36.92;;;10.00;99.90;;;;;;4930841;29;20083;-94
2021/12/15 06:42:45;;;;;;;74.90;35.38;;;9.90;99.90;;;;;;4930078;29;20486;-93
2021/12/15 06:45:15;;;;;;;74.63;36.13;;;10.10;99.90;;;;;;4945385;29;20087;-94
2021/12/15 06:59:08;;;;;;;78.43;35.05;;;9.30;99.90;;;;;;4888492;29;20060;-94
2021/12/15 07:01:33;;;;;;;82.95;34.70;;;9.90;99.90;;;;;;4933578;29;20108;-94
2021/12/15 07:03:59;;;;;;;74.25;35.35;;;10.50;99.90;;;;;;4945219;29;20047;-94
2021/12/15 07:06:24;;;;;;;87.68;38.47;;;10.10;99.90;;;;;;4931020;29;20052;-94
2021/12/15 07:08:50;;;;;;;76.60;36.83;;;11.00;99.90;;;;;;4946448;29;20111;-94
2021/12/15 07:11:16;;;;;;;82.65;36.75;;;10.00;99.90;;;;;;4941700;29;20059;-94
2021/12/15 07:13:42;;;;;;;83.80;37.08;;;10.00;99.90;;;;;;4926955;29;20158;-93
2021/12/15 07:16:10;;;;;;;72.18;36.42;;;10.00;99.90;;;;;;4925882;29;20043;-93
2021/12/15 07:18:52;;;;;;;83.32;37.38;;;10.00;99.90;;;;;;4926257;29;20134;-94
2021/12/15 07:21:24;;;;;;;83.13;37.53;;;10.40;99.90;;;;;;4953751;28;20044;-94
2021/12/15 07:23:52;;;;;;;78.90;33.85;;;10.30;99.90;;;;;;4923634;29;20044;-94
2021/12/15 07:26:18;;;;;;;75.60;37.40;;;9.90;99.90;;;;;;4923067;29;20047;-93
2021/12/15 07:28:44;;;;;;;73.10;35.28;;;11.00;99.90;;;;;;4921710;29;20114;-94
2021/12/15 07:31:11;;;;;;;79.88;35.92;;;9.90;99.90;;;;;;4921169;29;20055;-94
2021/12/15 07:33:37;;;;;;;81.47;37.80;;;10.00;99.90;;;;;;4919593;29;20054;-94
2021/12/15 07:36:05;;;;;;;70.60;35.13;;;9.90;99.90;;;;;;4936737;29;20132;-94
2021/12/15 07:38:30;;;;;;;79.03;35.83;;;10.00;99.90;;;;;;4920056;29;20056;-93
2021/12/15 07:40:57;;;;;;;63.53;31.48;;;9.90;99.90;;;;;;4918841;29;20487;-94
2021/12/15 07:43:25;;;;;;;75.40;36.35;;;10.00;99.90;;;;;;4935018;29;20111;-94
2021/12/15 07:46:00;;;;;;;70.10;35.50;;;10.00;99.90;;;;;;4919319;29;20146;-94
2021/12/15 07:48:30;;;;;;;68.78;33.03;;;9.90;99.90;;;;;;4918984;29;20166;-94
2021/12/15 07:50:58;;;;;;;75.90;34.70;;;9.90;99.90;;;;;;4919277;29;20280;-93
2021/12/15 07:53:24;;;;;;;65.38;29.23;;;10.10;99.90;;;;;;4934686;29;20126;-94
2021/12/15 07:55:51;;;;;;;70.28;35.33;;;10.10;99.90;;;;;;4919931;29;20102;-94
2021/12/15 07:58:18;;;;;;;68.57;29.13;;;9.50;99.90;;;;;;4920410;29;20055;-93
2021/12/15 08:00:46;;;;;;;69.80;32.55;;;10.10;99.90;;;;;;4918186;29;20058;-93
2021/12/15 08:03:13;;;;;;;54.60;28.08;;;10.10;99.90;;;;;;4918724;29;20058;-93
2021/12/15 08:05:40;;;;;;;60.35;28.80;;;10.10;99.90;;;;;;4935264;29;20054;-93
2021/12/15 08:08:07;;;;;;;58.55;27.38;;;10.10;99.90;;;;;;4918316;29;20062;-94
2021/12/15 08:10:34;;;;;;;57.28;27.70;;;10.20;99.90;;;;;;4919016;29;20075;-94
2021/12/15 08:13:00;;;;;;;57.67;28.80;;;10.20;99.90;;;;;;4933958;29;20051;-93
2021/12/15 08:15:25;;;;;;;52.25;27.20;;;10.20;99.90;;;;;;4937356;29;20635;-95
2021/12/15 08:17:52;;;;;;;69.55;29.17;;;10.10;99.90;;;;;;4935146;29;20050;-93
2021/12/15 08:20:24;;;;;;;58.50;28.08;;;10.10;99.90;;;;;;4933267;29;20130;-92
2021/12/15 08:22:50;;;;;;;52.30;26.05;;;10.20;99.90;;;;;;4933109;29;20059;-93
2021/12/15 08:25:17;;;;;;;54.13;26.52;;;10.20;99.90;;;;;;4917812;29;20415;-94
2021/12/15 08:27:44;;;;;;;59.67;26.98;;;10.20;99.90;;;;;;4934673;29;20055;-94
2021/12/15 08:30:13;;;;;;;55.50;25.27;;;10.20;99.90;;;;;;4920450;29;20402;-93
2021/12/15 08:32:39;;;;;;;53.85;27.17;;;10.20;99.90;;;;;;4919457;29;20060;-94
2021/12/15 08:35:05;;;;;;;;;;;10.30;99.90;;;;;;4918499;29;20111;-94
2021/12/15 08:37:32;;;;;;;51.97;25.58;;;10.20;99.90;;;;;;4919364;29;19941;-93
2021/12/15 08:39:58;;;;;;;48.03;25.10;;;10.20;99.90;;;;;;4936882;29;20115;-93
2021/12/15 08:42:24;;;;;;;54.78;23.77;;;10.20;99.90;;;;;;4921676;29;20051;-93
2021/12/15 08:44:52;;;;;;;48.58;25.30;;;10.30;99.90;;;;;;4937496;29;20882;-94
2021/12/15 08:47:18;;;;;;;47.13;21.48;;;10.30;99.90;;;;;;4938209;29;20049;-94
2021/12/15 08:49:44;;;;;;;54.67;25.30;;;10.30;99.90;;;;;;4921979;29;20146;-94
2021/12/15 08:52:10;;;;;;;56.97;26.25;;;10.30;99.90;;;;;;4920760;29;20059;-94
2021/12/15 08:54:36;;;;;;;55.10;25.05;;;10.30;99.90;;;;;;4921244;29;20055;-93
2021/12/15 08:57:07;;;;;;;50.50;22.63;;;10.30;99.90;;;;;;4922229;29;20048;-93
2021/12/15 08:59:33;;;;;;;51.92;23.52;;;10.30;99.90;;;;;;4920057;29;20503;-93
2021/12/15 09:01:59;;;;;;;42.97;22.98;;;10.40;99.90;;;;;;4936191;29;20075;-93
2021/12/15 09:04:24;;;;;;;46.22;23.83;;;10.40;99.90;;;;;;4920823;29;20047;-93
2021/12/15 09:06:50;;;;;;;52.15;21.90;;;10.40;99.90;;;;;;4937390;29;20524;-93
2021/12/15 09:09:17;;;;;;;;;;;10.50;99.90;;;;;;4937600;29;20056;-94
2021/12/15 09:11:44;;;;;;;43.60;21.73;;;10.20;99.90;;;;;;4924425;29;19977;-94
2021/12/15 09:14:11;;;;;;;43.38;22.42;;;10.50;99.90;;;;;;4923986;29;20066;-94
2021/12/15 09:16:44;;;;;;;42.20;23.52;;;10.30;99.90;;;;;;4923246;29;20110;-94
2021/12/15 09:19:10;;;;;;;40.65;20.25;;;10.40;99.90;;;;;;4925464;29;20048;-94
2021/12/15 09:21:37;;;;;;;44.60;21.75;;;11.20;99.90;;;;;;4940410;29;20091;-94
2021/12/15 09:24:06;;;;;;;52.28;22.20;;;11.10;99.90;;;;;;4924297;29;20050;-93
2021/12/15 09:26:32;;;;;;;41.00;22.02;;;10.40;99.90;;;;;;4925636;29;20056;-94
2021/12/15 09:29:00;;;;;;;45.40;23.13;;;11.20;99.90;;;;;;4940976;29;20104;-93
2021/12/15 09:31:26;;;;;;;47.95;23.35;;;9.90;99.90;;;;;;4926464;29;20071;-93
2021/12/15 09:34:11;;;;;;;40.92;22.40;;;10.60;99.90;;;;;;4925781;29;20053;-93
2021/12/15 09:36:37;;;;;;;41.88;22.40;;;11.00;99.90;;;;;;4925374;28;20071;-93
2021/12/15 09:39:13;;;;;;;;;;;10.40;99.90;;;;;;4941748;29;20048;-93
2021/12/15 09:41:41;;;;;;;46.17;22.67;;;10.30;99.90;;;;;;4926416;29;19923;-93
2021/12/15 09:44:21;;;;;;;42.33;22.63;;;10.00;99.90;;;;;;4943247;29;20055;-93
2021/12/15 10:02:56;;;;;;;40.03;20.33;;;10.00;99.90;;;;;;4937704;29;20059;-91
2021/12/15 10:05:42;;;;;;;45.08;21.08;;;10.00;99.90;;;;;;4938905;29;20047;-93
2021/12/15 10:11:44;;;;;;;39.47;19.30;;;10.20;99.90;;;;;;4903501;29;20050;-93
2021/12/15 10:19:47;;;;;;;29.23;15.85;;;10.40;99.90;;;;;;4936126;29;20059;-93
2021/12/15 10:22:26;;;;;;;35.90;16.92;;;10.50;99.90;;;;;;4919971;29;20083;-93
2021/12/15 10:24:58;;;;;;;32.63;15.40;;;10.60;99.90;;;;;;4921497;29;20056;-94
2021/12/15 10:27:58;;;;;;;24.92;14.52;;;10.60;99.90;;;;;;4921961;29;20079;-94
2021/12/15 10:30:33;;;;;;;22.27;11.05;;;10.60;99.90;;;;;;4937606;29;20047;-93
2021/12/15 10:33:01;;;;;;;26.67;13.45;;;10.70;99.90;;;;;;4923725;28;20055;-93
2021/12/15 10:35:37;;;;;;;30.15;13.45;;;11.90;99.90;;;;;;4924253;29;20390;-93
2021/12/15 10:38:19;;;;;;;25.17;13.38;;;11.70;99.90;;;;;;4932142;28;20034;-93
2021/12/15 10:41:03;;;;;;;33.35;13.73;;;10.80;99.90;;;;;;4923802;29;20047;-92
2021/12/15 10:43:38;;;;;;;33.67;13.90;;;10.70;99.90;;;;;;4922687;29;20111;-93
2021/12/15 10:46:12;;;;;;;38.85;13.80;;;11.30;99.90;;;;;;4921997;29;20056;-92
2021/12/15 11:09:14;;;;;;;23.08;13.10;;;11.10;99.90;;;;;;5500994;23;20062;-93
2021/12/15 11:12:01;;;;;;;24.65;11.27;;;11.90;99.90;;;;;;4932363;29;20063;-92
2021/12/15 11:14:31;;;;;;;;;;;11.10;99.90;;;;;;4931518;29;20048;-92
2021/12/15 11:17:08;;;;;;;19.92;10.77;;;11.20;99.90;;;;;;4916644;29;19927;-93
2021/12/15 11:20:09;;;;;;;25.20;12.02;;;11.30;99.90;;;;;;4935406;29;20149;-93
2021/12/15 11:22:43;;;;;;;23.73;10.70;;;11.30;99.90;;;;;;4897364;29;20031;-92
2021/12/15 11:25:19;;;;;;;23.65;10.68;;;11.30;99.90;;;;;;4935235;29;20082;-91
2021/12/15 11:27:53;;;;;;;21.75;10.40;;;11.30;99.90;;;;;;4935490;29;20043;-90
2021/12/15 11:30:29;;;;;;;22.65;9.80;;;11.20;99.90;;;;;;4935791;29;20054;-91
2021/12/15 11:32:59;;;;;;;19.70;8.98;;;11.20;99.90;;;;;;4935168;29;20043;-91
2021/12/15 11:35:32;;;;;;;26.98;9.18;;;11.20;99.90;;;;;;4919830;29;20512;-90
2021/12/15 11:38:03;;;;;;;18.05;9.27;;;11.20;99.90;;;;;;4935580;29;20146;-90
2021/12/15 11:40:44;;;;;;;19.42;9.10;;;11.20;99.90;;;;;;4919813;29;20129;-91
2021/12/15 11:43:26;;;;;;;19.75;9.10;;;11.20;99.90;;;;;;4935750;29;20387;-90
2021/12/15 11:45:52;;;;;;;18.58;8.77;;;11.10;99.90;;;;;;4936267;29;20458;-90
2021/12/15 11:48:25;;;;;;;14.23;7.85;;;11.10;99.90;;;;;;4936422;29;20055;-90
2021/12/15 11:50:54;;;;;;;23.73;9.32;;;11.20;99.90;;;;;;4938516;29;20051;-92
2021/12/15 11:53:34;;;;;;;16.05;8.02;;;11.20;99.90;;;;;;4935799;29;20066;-90
2021/12/15 11:56:34;;;;;;;17.35;8.60;;;11.20;99.90;;;;;;4919329;29;20050;-91
2021/12/15 11:59:33;;;;;;;18.98;7.38;;;11.20;99.90;;;;;;4927416;29;20090;-90
2021/12/15 12:02:04;;;;;;;18.73;7.88;;;11.20;99.90;;;;;;4934881;29;20130;-89
2021/12/15 12:04:37;;;;;;;18.30;7.78;;;11.20;99.90;;;;;;4934769;29;20058;-90
2021/12/15 12:07:27;;;;;;;17.40;7.35;;;11.20;99.90;;;;;;4934455;29;20498;-90
2021/12/15 12:10:27;;;;;;;17.88;7.72;;;11.20;99.90;;;;;;4904097;29;20060;-91
2021/12/15 12:13:08;;;;;;;16.80;7.43;;;11.20;99.90;;;;;;4912069;29;20048;-90
2021/12/15 12:15:37;;;;;;;20.55;7.70;;;11.20;99.90;;;;;;4913045;29;20448;-90
2021/12/15 12:18:13;;;;;;;19.92;8.02;;;11.20;99.90;;;;;;4915181;29;20087;-90
2021/12/15 12:20:43;;;;;;;13.27;6.10;;;11.30;99.90;;;;;;4915490;29;20056;-90
2021/12/15 12:23:13;;;;;;;18.95;7.68;;;10.20;99.90;;;;;;4915801;29;20628;-89
2021/12/15 12:25:42;;;;;;;16.75;7.95;;;11.20;99.90;;;;;;4915364;29;20091;-90
2021/12/15 12:28:12;;;;;;;20.25;8.32;;;11.30;99.90;;;;;;4916316;29;20057;-90
2021/12/15 12:30:44;;;;;;;16.55;6.95;;;11.30;99.90;;;;;;4915165;29;20089;-90
2021/12/15 12:33:12;;;;;;;18.10;7.25;;;11.20;99.90;;;;;;4914975;29;20048;-90
2021/12/15 12:35:50;;;;;;;17.13;7.57;;;11.70;99.90;;;;;;4915364;29;20487;-90
2021/12/15 12:38:27;;;;;;;18.10;7.30;;;11.20;99.90;;;;;;4899709;29;20074;-90
2021/12/15 12:40:55;;;;;;;;;;;11.30;99.90;;;;;;4916216;29;20048;-91
2021/12/15 12:43:30;;;;;;;17.17;7.90;;;11.40;99.90;;;;;;4916720;29;20290;-90
2021/12/15 12:46:35;;;;;;;19.55;7.85;;;11.40;99.90;;;;;;4914925;29;20048;-90
2021/12/15 13:00:28;;;;;;;15.48;6.93;;;11.00;99.90;;;;;;4915067;29;20639;-90
2021/12/15 13:03:01;;;;;;;13.43;5.30;;;11.00;99.90;;;;;;4915220;29;20059;-90
2021/12/15 13:05:38;;;;;;;13.80;6.20;;;11.60;99.90;;;;;;4902226;29;20052;-87
2021/12/15 13:08:38;;;;;;;13.20;4.97;;;10.90;99.90;;;;;;4917586;29;20056;-90
2021/12/15 13:11:18;;;;;;;15.55;4.90;;;10.90;99.90;;;;;;4895773;29;20060;-90
2021/12/15 13:13:58;;;;;;;11.90;4.65;;;10.90;99.90;;;;;;4915928;29;20485;-91
2021/12/15 13:16:30;;;;;;;14.00;5.45;;;10.90;99.90;;;;;;4916102;29;20043;-90
2021/12/15 13:19:04;;;;;;;14.93;5.05;;;10.90;99.90;;;;;;4915591;29;20075;-93
2021/12/15 13:21:40;;;;;;;11.70;3.85;;;10.90;99.90;;;;;;4932880;29;20052;-89
2021/12/15 13:30:46;;;;;;;13.10;4.40;;;10.90;99.90;;;;;;4919777;29;20063;-90
2021/12/15 13:33:16;;;;;;;9.77;3.35;;;11.00;99.90;;;;;;4919613;29;20533;-90
2021/12/15 13:35:55;;;;;;;9.07;3.35;;;10.80;99.90;;;;;;4903676;29;20055;-89
2021/12/15 13:38:36;;;;;;;8.77;3.17;;;10.80;99.90;;;;;;4904116;29;20146;-90
2021/12/15 13:41:21;;;;;;;12.63;3.90;;;10.70;99.90;;;;;;4919186;29;20047;-90
2021/12/15 13:43:52;;;;;;;6.90;3.47;;;10.60;99.90;;;;;;4937048;29;20131;-88
2021/12/15 13:46:40;;;;;;;15.45;3.20;;;10.40;99.90;;;;;;4936796;29;20050;-90
2021/12/15 13:49:26;;;;;;;8.88;2.60;;;10.20;99.90;;;;;;4920312;29;20461;-89
2021/12/15 13:52:10;;;;;;;8.52;2.50;;;10.10;99.90;;;;;;4903819;29;20064;-90
2021/12/15 13:54:36;;;;;;;8.20;2.53;;;9.90;99.90;;;;;;4918637;29;20070;-89
2021/12/15 13:57:33;;;;;;;9.40;3.35;;;9.80;99.90;;;;;;4918989;29;20621;-90
2021/12/15 14:00:19;;;;;;;8.98;3.03;;;9.70;99.90;;;;;;4903602;29;20051;-91
2021/12/15 14:03:01;;;;;;;7.85;3.17;;;9.60;99.90;;;;;;4903491;29;20093;-94
2021/12/15 14:05:30;;;;;;;5.13;2.97;;;10.70;99.90;;;;;;4936905;29;20169;-92
2021/12/15 14:08:01;;;;;;;7.72;2.80;;;9.40;99.90;;;;;;4909320;29;20051;-92
2021/12/15 14:10:26;;;;;;;12.02;3.30;;;9.40;99.90;;;;;;4905430;29;20055;-91
2021/12/15 14:12:56;;;;;;;8.82;3.05;;;8.30;99.90;;;;;;4922338;29;20066;-88
2021/12/15 14:15:37;;;;;;;11.23;3.05;;;9.20;99.90;;;;;;4922545;29;20052;-90
2021/12/15 14:18:09;;;;;;;11.15;3.80;;;9.10;99.90;;;;;;4905032;29;20051;-93
2021/12/15 14:20:39;;;;;;;9.55;2.33;;;9.10;99.90;;;;;;4906644;29;20051;-91
2021/12/15 14:23:13;;;;;;;6.78;2.70;;;9.60;99.90;;;;;;4906595;29;20166;-91
2021/12/15 14:29:13;;;;;;;7.13;2.72;;;9.00;99.90;;;;;;5361628;23;20046;-83
2021/12/15 14:31:43;;;;;;;6.60;2.55;;;9.00;99.90;;;;;;4985535;28;20141;-82
2021/12/15 14:35:26;;;;;;;7.78;2.95;;;9.00;99.90;;;;;;5092925;27;20431;-79
2021/12/15 14:37:51;;;;;;;12.93;3.35;;;9.10;99.90;;;;;;5091648;28;20052;-80
2021/12/15 14:40:20;;;;;;;10.77;2.90;;;9.20;99.90;;;;;;5092020;28;20044;-80
2021/12/15 14:42:46;;;;;;;5.90;2.03;;;9.30;99.90;;;;;;5090994;28;20058;-81
2021/12/15 14:45:13;;;;;;;7.82;2.17;;;9.30;99.90;;;;;;5087131;28;20048;-79
2021/12/15 14:47:42;;;;;;;12.32;1.70;;;9.40;99.90;;;;;;5070514;28;20063;-81
2021/12/15 14:50:17;;;;;;;6.88;2.03;;;9.50;99.90;;;;;;5071787;28;20051;-81
2021/12/15 14:52:52;;;;;;;6.28;2.30;;;9.60;99.90;;;;;;5070598;28;20037;-81